Airfield :
LOGIN :

Register | Disclaimer

   EN    FR    IT 

 










Legend :    VFR   Marginal VFR   IFR   Intensive IFR   Very Intensive IFR
Visi :
Ceiling :
>= 8 km
>= 3000ft
5 to 8 km
1000 to 3000 ft
1500m to 5 km
500 to 1000 ft
800 to 1500m
200 to 500 ft
< 800m
< 200 ft
Symbols :   Thunderstorms  Fog  Heavy snow  Heavy precipitations  Wind > 20 kt
SIGMETs :     Misc.  Thunderstorms  Icing  Turbulence  Mountain Waves  Volcanic Ashes






- Airport Elevation : 675 ft
- IATA code : RZE


EPRZ - Rzeszow-Jasionka

CURRENT METAR :
  • 310300Z 28016KT 5000 -RA BR OVC003 10/09 Q1005 RERA

EXPIRED METARs :
  • 310230Z 28016KT 4000 RA BR OVC003 09/09 Q1005
  • 310200Z 28017KT 3500 RA BR OVC003 09/09 Q1005
  • 310130Z 28015KT 3500 RA BR OVC003 09/09 Q1005
  • 310100Z 28017KT 4000 RA BR BKN003 09/09 Q1006
  • 310030Z 28018KT 8000 -RA BKN003 09/08 Q1006

TAF TAF EPRZ
Valid from the 31 at 00:00 until the 01 at 00:00 UTC


302330Z 3100/3124 29018KT 7000 -RA BKN007 OVC013
TEMPO 3100/3106 29020G30KT 2000 +RA BR BKN004 OVC009
BECMG 3106/3109 36015G25KT BKN013
TEMPO 3110/3116 4000 RA BKN008
BECMG 3118/3120 36012KT SCT030



MET'MAP, your aeronautical weather chart ! - Copyright ORBIFLY December 2007 - Disclaimer

ORBIFLY MET'MAP TEAM :

Programming & Development : Alexandra Zaïnal
Concept & original design : Baudouin d'Aumeries
Assistance for programming : Marc-Olivier Méhu
Technical & hardware support : Manuel Goepfert

Contact : metmap@orbifly.com




SOURCES & CREDITS :

   NOAA